Share

Rome, OR

Mountain Home Air Force Base (KMUO) Elev 2995 ft | 43.04 °N, 115.87 °W | Change Station

Current weather conditions updated 16 minutes ago

Overcast
Overcast
53 °F
Feels Like 53 °F
N
14
Wind Variable Wind from NW
Sunrise 7:03 AM
Sunset 8:35 PM
Moon Waning Gibbous

Today is forecast to be Much Cooler than yesterday.

Pressure 29.97 in
Visibility 10.0 miles
Clouds Mostly Cloudy 4700 ft
Overcast 5500 ft
Dew Point 39 °F
Humidity 58%
Rainfall 0.00 in
Snow Depth Not available.
UV 1 out of 16
Pollen 9.50 out of 12
Air Quality Not available.
Flu Activity Sporadic
METAR KMUO 181558Z AUTO 32012KT 10SM BKN047 OVC055 12/04 A3000 RMK AO2 SLP147 T01160037

More Conditions Fewer Conditions

Pressure 29.97 in
Visibility 10.0 miles
Clouds Mostly Cloudy 4700 ft
Overcast 5500 ft
Dew Point 39 °F
Humidity 58%
Rainfall 0.00 in
Snow Depth Not available.
UV 1 out of 16
Pollen 9.50 out of 12
Air Quality Not available.
Flu Activity Sporadic
METAR KMUO 181558Z AUTO 32012KT 10SM BKN047 OVC055 12/04 A3000 RMK AO2 SLP147 T01160037

More Conditions Fewer Conditions

10-Day Forecast

Almanac

Astronomy

Apr. 18, 2014 Rise Set
Actual Time 7:03 AM MDT 8:35 PM MDT
Civil Twilight 6:33 AM MDT 9:05 PM MDT
Nautical Twilight 5:58 AM MDT 9:40 PM MDT
Astronomical Twilight 5:20 AM MDT 10:19 PM MDT
Moon No Moon Rise 9:26 AM MDT
Length of Visible Light 14h 31m
Length of Day
13h 31m
Tomorrow will be 2m 43s longer.
Waning Gibbous, 87% of the Moon is Illuminated
Today
Waning Gibbous
Apr 22
Last Quarter
Apr 29
New
May 6
First Quarter
May 14
Full

Today's Extremes

State Highs State Lows

Community

  • What's for Lunch?
    What's for Lunch?
  • SUNRISE THROUGH THE TREES.
    SUNRISE THROUGH THE TREES.
  • Dog Wood Blossoms
    Dog Wood Blossoms
  • Morning Light
    Morning Light
  • New Day
    New Day

WunderPhotos

Upload Photos

1,702,401 photos uploaded!

Nearby

Snow Depth

Station Depth Elevation
Fish Creek 50 in 7900 ft
Silvies 3 in 6900 ft
Rock Springs 0 in 5550 ft
Lake Creek R.S. 0 in 5200 ft
Blue Mountain Spring 17 in 5900 ft

Coastal Water Temperatures

Place Temperature
No Stations Reporting

Earthquake Activity

City Distance Mag. Time & Date
No recent earthquake activity has been reported nearby.
Minimum magnitude displayed is 2.5.

Nearby Weather Stations

Station Location Temp. Windchill Dew Point Humidity Wind Precip. Elev Updated Type
RAWS GRASSY MOUNTAIN OR, Jordan Valley, OR 39 °F 33 °F 35 °F 84% North  at  8 mph 0.00 in / hr 4560 ft 7:24 AM MDT MADIS

Show More Stations Show Fewer Stations

What do you think?

We're not finished. Please let us know what you like, what you don't like, and what you are still missing.